Time;durP1;ratioP1;P1;durP2;ratioP2;P2;SDS_P1;SDS_P2;PMS_P1;PMS_P2;Temp;Humidity;BMP_temperature;BMP_pressure;BME280_temperature;BME280_humidity;BME280_pressure;Samples;Min_cycle;Max_cycle;Signal;HPM_P1;HPM_P2
2023/12/09 00:00:49;;;;;;;23.10;11.55;;;;;;;22.11;42.33;101034.09;2098331;28;20029;-67
2023/12/09 00:01:50;;;;;;;23.52;12.35;;;;;;;22.12;42.36;101029.44;2093896;28;20025;-65
2023/12/09 00:02:53;;;;;;;22.25;12.93;;;;;;;22.12;42.17;101023.94;2097913;28;20025;-67
2023/12/09 00:03:57;;;;;;;25.45;12.88;;;;;;;22.12;42.15;101018.47;2106171;28;20071;-66
2023/12/09 00:04:59;;;;;;;25.52;12.40;;;;;;;22.12;42.25;101018.47;2089902;28;20046;-66
2023/12/09 00:06:04;;;;;;;25.65;12.95;;;;;;;22.12;42.12;101021.22;2090476;28;20966;-66
2023/12/09 00:07:06;;;;;;;26.17;12.65;;;;;;;22.12;42.30;101032.16;2098488;28;20036;-66
2023/12/09 00:08:08;;;;;;;21.85;11.85;;;;;;;22.12;42.19;101026.69;2097507;28;20878;-66
2023/12/09 00:09:09;;;;;;;24.00;11.70;;;;;;;22.12;42.23;101032.16;2098172;28;21217;-67
2023/12/09 00:10:11;;;;;;;22.42;12.05;;;;;;;22.12;42.36;101037.63;2089562;28;20038;-66
2023/12/09 00:11:13;;;;;;;20.83;11.90;;;;;;;22.12;42.43;101026.69;2098029;28;20024;-66
2023/12/09 00:12:22;;;;;;;24.50;12.35;;;;;;;22.11;42.32;101036.06;2106105;28;20068;-67
2023/12/09 00:13:26;;;;;;;22.95;11.82;;;;;;;22.12;42.38;101041.16;2097823;28;21153;-66
2023/12/09 00:14:28;;;;;;;22.48;11.70;;;;;;;22.11;42.43;101025.91;2089579;28;20052;-66
2023/12/09 00:15:31;;;;;;;24.15;12.45;;;;;;;22.12;42.22;101032.16;2089917;28;20069;-66
2023/12/09 00:16:34;;;;;;;23.40;12.23;;;;;;;22.13;42.34;101028.28;2106424;28;20031;-66
2023/12/09 00:17:36;;;;;;;24.65;12.40;;;;;;;22.12;42.33;101032.16;2106114;28;20040;-67
2023/12/09 00:18:41;;;;;;;24.48;12.23;;;;;;;22.12;42.36;101029.44;2106339;28;20102;-67
2023/12/09 00:19:42;;;;;;;24.95;12.85;;;;;;;22.12;42.44;101030.22;2097645;28;20278;-67
2023/12/09 00:20:46;;;;;;;22.38;12.57;;;;;;;22.13;42.31;101022.78;2097963;28;20037;-67
2023/12/09 00:21:53;;;;;;;25.10;12.35;;;;;;;22.13;42.34;101028.28;2106957;28;20838;-66
2023/12/09 00:22:55;;;;;;;21.83;11.63;;;;;;;22.13;42.47;101023.63;2105968;28;20032;-67
2023/12/09 00:24:00;;;;;;;22.02;12.10;;;;;;;22.12;42.40;101023.94;2097872;28;20033;-66
2023/12/09 00:25:01;;;;;;;24.27;12.13;;;;;;;22.13;42.33;101028.28;2097554;28;20116;-66
2023/12/09 00:26:06;;;;;;;23.38;12.20;;;;;;;22.12;42.16;101022.00;2098299;28;20036;-66
2023/12/09 00:27:09;;;;;;;26.92;12.55;;;;;;;22.12;42.01;101013.00;2089364;28;20029;-66
2023/12/09 00:28:14;;;;;;;26.48;13.20;;;;;;;22.12;42.13;101018.47;2082588;28;20884;-66
2023/12/09 00:29:15;;;;;;;24.08;12.27;;;;;;;22.12;42.20;101013.78;2105919;28;20553;-66
2023/12/09 00:30:18;;;;;;;24.17;11.85;;;;;;;22.12;42.13;101010.25;2106918;28;20780;-66
2023/12/09 00:31:20;;;;;;;24.08;12.35;;;;;;;22.11;42.32;101009.47;2106225;28;20056;-66
2023/12/09 00:32:22;;;;;;;25.67;12.70;;;;;;;22.11;42.19;101009.47;2089677;28;20127;-66
2023/12/09 00:33:23;;;;;;;23.38;12.40;;;;;;;22.12;42.32;100999.31;2072768;28;20037;-66
2023/12/09 00:34:26;;;;;;;24.33;12.25;;;;;;;22.11;42.13;100995.78;2089662;28;20116;-66
2023/12/09 00:35:27;;;;;;;27.08;12.85;;;;;;;22.11;42.16;100995.78;2081104;28;20042;-66
2023/12/09 00:36:30;;;;;;;25.92;12.45;;;;;;;22.12;42.21;100999.31;2089804;28;20124;-66
2023/12/09 00:37:32;;;;;;;24.27;12.48;;;;;;;22.10;42.31;100996.09;2105924;28;20035;-66
2023/12/09 00:38:33;;;;;;;22.63;12.20;;;;;;;22.11;42.28;100992.25;2097683;28;20021;-66
2023/12/09 00:39:35;;;;;;;25.35;12.15;;;;;;;22.11;42.23;100987.56;2089420;28;20061;-66
2023/12/09 00:40:37;;;;;;;25.23;13.23;;;;;;;22.08;42.16;100982.78;2106334;28;20114;-66
2023/12/09 00:41:39;;;;;;;25.50;12.15;;;;;;;22.10;42.23;100991.44;2105877;28;20078;-66
2023/12/09 00:42:41;;;;;;;26.05;12.70;;;;;;;22.11;42.13;100986.75;2089559;28;20034;-66
2023/12/09 00:43:43;;;;;;;27.13;12.93;;;;;;;22.11;42.09;100989.50;2097713;28;20087;-66
2023/12/09 00:44:46;;;;;;;27.65;12.45;;;;;;;22.10;42.17;100990.63;2106180;28;20032;-66
2023/12/09 00:45:49;;;;;;;21.85;11.95;;;;;;;22.11;42.25;101000.47;2114224;28;20966;-66
2023/12/09 00:46:52;;;;;;;25.35;12.80;;;;;;;22.12;42.13;100991.09;2106128;28;20068;-65
2023/12/09 00:47:54;;;;;;;24.33;12.43;;;;;;;22.12;42.11;100991.09;2089426;28;20061;-66
2023/12/09 00:48:58;;;;;;;23.13;11.80;;;;;;;22.12;42.15;100993.81;2097889;28;20118;-66
2023/12/09 00:50:00;;;;;;;24.80;12.55;;;;;;;22.10;42.10;100993.38;2097315;28;20049;-66
2023/12/09 00:51:01;;;;;;;23.02;12.50;;;;;;;22.10;41.98;100985.97;2106340;28;20041;-66
2023/12/09 00:52:04;;;;;;;20.73;12.07;;;;;;;22.10;42.02;100990.63;2114133;28;20774;-66
2023/12/09 00:53:09;;;;;;;25.38;12.95;;;;;;;22.11;42.19;100986.75;2105981;28;20033;-66
2023/12/09 00:54:12;;;;;;;21.60;11.63;;;;;;;22.12;42.12;100988.34;2105951;28;20950;-66
2023/12/09 00:55:14;;;;;;;21.65;12.30;;;;;;;22.11;42.13;100992.25;2106444;28;20032;-66
2023/12/09 00:56:16;;;;;;;21.77;12.25;;;;;;;22.11;42.21;100992.25;2097518;28;20110;-66
2023/12/09 00:57:20;;;;;;;27.13;12.40;;;;;;;22.10;42.31;100988.72;2098108;28;21190;-66
2023/12/09 00:58:22;;;;;;;24.38;12.40;;;;;;;22.11;42.16;100992.25;2105492;28;20143;-66
2023/12/09 00:59:24;;;;;;;27.52;12.95;;;;;;;22.09;42.07;100995.31;2097621;28;20036;-66
2023/12/09 01:00:26;;;;;;;23.90;12.75;;;;;;;22.11;42.17;100997.72;2105909;28;20143;-66
2023/12/09 01:01:28;;;;;;;26.88;12.52;;;;;;;22.10;42.16;100999.66;2105817;28;20049;-66
2023/12/09 01:02:31;;;;;;;26.17;12.50;;;;;;;22.10;42.07;100999.66;2097577;28;20157;-66
2023/12/09 01:03:32;;;;;;;22.83;12.13;;;;;;;22.11;42.14;101005.94;2089486;28;20038;-66
2023/12/09 01:04:35;;;;;;;26.00;12.00;;;;;;;22.10;42.00;101002.41;2081281;28;20049;-66
2023/12/09 01:05:37;;;;;;;27.50;12.77;;;;;;;22.11;42.17;100997.72;2081272;28;20116;-66
2023/12/09 01:06:39;;;;;;;26.48;12.48;;;;;;;22.11;42.14;100992.25;2089722;28;20042;-66
2023/12/09 01:07:40;;;;;;;26.65;12.43;;;;;;;22.12;42.22;100999.31;2105973;28;20023;-66
2023/12/09 01:08:42;;;;;;;25.48;13.13;;;;;;;22.11;42.07;100992.25;2088871;28;20179;-66
2023/12/09 01:09:43;;;;;;;22.23;11.90;;;;;;;22.11;42.21;101000.47;2081352;28;20033;-66
2023/12/09 01:10:48;;;;;;;23.77;12.27;;;;;;;22.11;42.22;100994.97;2097511;28;20247;-66
2023/12/09 01:11:52;;;;;;;23.63;11.60;;;;;;;22.10;42.20;100985.16;2106148;28;20895;-66
2023/12/09 01:12:57;;;;;;;27.45;13.18;;;;;;;22.11;42.08;100997.72;2105721;28;20021;-67
2023/12/09 01:13:59;;;;;;;26.15;12.85;;;;;;;22.11;42.16;100992.25;2098050;28;20749;-67
2023/12/09 01:15:03;;;;;;;27.88;12.95;;;;;;;22.09;42.41;100998.03;2097316;28;20147;-66
2023/12/09 01:16:10;;;;;;;23.58;12.88;;;;;;;22.11;42.25;100993.03;2098311;28;20025;-66
2023/12/09 01:17:12;;;;;;;22.60;12.02;;;;;;;22.11;42.23;100993.03;2097139;28;20998;-67
2023/12/09 01:18:15;;;;;;;24.52;12.20;;;;;;;22.11;42.29;100987.56;2097890;28;20084;-67
2023/12/09 01:19:21;;;;;;;25.15;12.15;;;;;;;22.12;42.27;100991.09;2106370;28;20147;-66
2023/12/09 01:20:25;;;;;;;23.75;11.88;;;;;;;22.11;42.17;100981.28;2097607;28;20029;-67
2023/12/09 01:21:27;;;;;;;22.38;11.98;;;;;;;22.12;42.14;100988.34;2089781;28;20768;-67
2023/12/09 01:22:31;;;;;;;25.48;11.98;;;;;;;22.13;42.33;100978.97;2105827;28;20135;-65
2023/12/09 01:23:36;;;;;;;26.65;12.52;;;;;;;22.12;42.36;100980.13;2105492;28;20035;-66
2023/12/09 01:24:40;;;;;;;26.77;12.75;;;;;;;22.13;42.35;100987.19;2106041;28;20017;-66
2023/12/09 01:25:42;;;;;;;24.20;12.25;;;;;;;22.14;42.31;100980.59;2097745;28;21087;-66
2023/12/09 01:26:44;;;;;;;24.13;12.73;;;;;;;22.12;42.27;100975.44;2097805;28;20963;-66
2023/12/09 01:27:48;;;;;;;23.90;12.30;;;;;;;22.14;42.17;100977.84;2105625;28;20946;-66
2023/12/09 01:28:50;;;;;;;25.55;13.13;;;;;;;22.13;42.10;100979.81;2105701;28;20032;-66
2023/12/09 01:29:56;;;;;;;25.27;12.00;;;;;;;22.13;42.35;100981.72;2088848;28;20749;-66
2023/12/09 01:30:58;;;;;;;24.63;11.63;;;;;;;22.14;42.13;100975.91;2098346;28;20033;-66
2023/12/09 01:32:03;;;;;;;24.50;12.40;;;;;;;22.14;42.19;100975.13;2097072;28;20986;-67
2023/12/09 01:33:04;;;;;;;29.13;12.98;;;;;;;22.13;42.27;100974.31;2097616;28;20866;-66
2023/12/09 01:34:06;;;;;;;27.10;11.52;;;;;;;22.14;42.22;100966.91;2097652;28;20027;-66
2023/12/09 01:35:10;;;;;;;26.42;12.48;;;;;;;22.11;42.28;100965.66;2088956;28;20060;-67
2023/12/09 01:36:14;;;;;;;25.15;11.57;;;;;;;22.14;42.19;100970.44;2097414;28;20036;-67
2023/12/09 01:37:16;;;;;;;22.38;11.73;;;;;;;22.15;42.14;100968.50;2105652;28;20819;-66
2023/12/09 01:38:18;;;;;;;22.88;11.43;;;;;;;22.11;42.32;100960.16;2097447;28;20954;-66
2023/12/09 01:39:19;;;;;;;21.70;11.05;;;;;;;22.15;42.19;100966.53;2089314;28;20039;-66
2023/12/09 01:40:21;;;;;;;25.65;12.40;;;;;;;22.11;42.22;100962.13;2080938;28;20041;-66
2023/12/09 01:41:23;;;;;;;24.75;11.65;;;;;;;22.16;42.34;100964.63;2097524;28;20051;-66
2023/12/09 01:42:26;;;;;;;24.88;12.63;;;;;;;22.17;42.27;100964.28;2105515;28;20032;-67
2023/12/09 01:43:31;;;;;;;29.50;13.10;;;;;;;22.17;42.15;100974.44;2105924;28;20144;-67
2023/12/09 01:44:32;;;;;;;28.02;12.50;;;;;;;22.17;42.08;100958.81;2097672;28;20045;-66
2023/12/09 01:45:35;;;;;;;23.25;11.25;;;;;;;22.16;42.12;100957.22;2089114;28;20032;-66
2023/12/09 01:46:38;;;;;;;25.27;11.50;;;;;;;22.18;42.38;100965.09;2083802;28;20045;-67
2023/12/09 01:47:41;;;;;;;24.35;11.90;;;;;;;22.18;42.23;100959.59;2079830;28;20877;-66
2023/12/09 01:48:45;;;;;;;22.38;12.30;;;;;;;22.18;42.05;100959.59;2057402;28;20269;-67
2023/12/09 01:49:47;;;;;;;22.85;11.43;;;;;;;22.17;42.23;100956.06;2073816;28;20037;-67
2023/12/09 01:50:49;;;;;;;25.48;12.38;;;;;;;22.18;42.33;100954.91;2088541;28;20022;-68
2023/12/09 01:51:52;;;;;;;24.27;12.10;;;;;;;22.18;42.43;100948.66;2072381;28;21272;-66
2023/12/09 01:52:58;;;;;;;25.30;12.20;;;;;;;22.18;42.36;100954.13;2072914;28;20845;-66
2023/12/09 01:54:04;;;;;;;25.45;11.85;;;;;;;22.19;42.55;100950.25;2088910;28;20812;-66
2023/12/09 01:55:06;;;;;;;25.85;12.68;;;;;;;22.18;42.43;100943.97;2080867;28;20030;-67
2023/12/09 01:56:16;;;;;;;27.00;12.52;;;;;;;22.19;42.39;100961.19;2088768;28;20030;-67
2023/12/09 01:57:18;;;;;;;27.08;12.73;;;;;;;22.18;42.50;100949.44;2096585;28;20099;-67
2023/12/09 01:58:19;;;;;;;25.40;12.52;;;;;;;22.18;42.41;100954.13;2096806;28;20029;-66
2023/12/09 01:59:22;;;;;;;25.52;11.80;;;;;;;22.19;42.42;100955.72;2104385;28;20021;-67
2023/12/09 02:00:25;;;;;;;25.23;10.88;;;;;;;22.20;42.49;100946.38;2104755;28;20139;-67
2023/12/09 02:01:27;;;;;;;22.73;11.95;;;;;;;22.20;42.50;100951.84;2095866;28;20142;-67
2023/12/09 02:02:34;;;;;;;23.92;11.88;;;;;;;22.19;42.47;100951.06;2079713;28;20048;-67
2023/12/09 02:03:39;;;;;;;24.75;12.70;;;;;;;22.20;42.54;100952.66;2081122;28;20026;-67
2023/12/09 02:04:43;;;;;;;23.67;12.30;;;;;;;22.20;42.48;100946.38;2088634;28;20881;-68
2023/12/09 02:05:49;;;;;;;24.92;12.20;;;;;;;22.19;42.41;100942.84;2089203;28;20076;-69
2023/12/09 02:06:51;;;;;;;25.55;13.32;;;;;;;22.20;42.39;100943.63;2096648;28;20941;-68
2023/12/09 02:07:53;;;;;;;24.85;12.57;;;;;;;22.19;42.57;100942.03;2096674;28;20041;-68
2023/12/09 02:08:55;;;;;;;25.30;12.02;;;;;;;22.19;42.49;100937.38;2088755;28;20064;-67
2023/12/09 02:09:57;;;;;;;30.73;12.68;;;;;;;22.19;42.40;100936.53;2088813;28;20224;-66
2023/12/09 02:11:31;;;;;;;25.65;12.57;;;;;;;22.19;42.43;100933.81;2097023;28;20028;-65
2023/12/09 02:12:35;;;;;;;23.88;11.73;;;;;;;22.19;42.41;100940.09;2108379;28;20858;-66
2023/12/09 02:14:07;;;;;;;23.77;12.10;;;;;;;22.20;42.32;100940.91;2108930;28;20037;-66
2023/12/09 02:15:24;;;;;;;24.05;12.38;;;;;;;22.19;42.56;100933.81;2111606;28;20189;-66
2023/12/09 02:16:36;;;;;;;25.90;12.07;;;;;;;22.19;42.34;100931.88;2106754;28;20044;-66
2023/12/09 02:18:00;;;;;;;24.23;12.18;;;;;;;22.18;42.30;100933.00;2099258;28;20036;-66
2023/12/09 02:19:10;;;;;;;23.27;11.98;;;;;;;22.18;42.39;100937.69;2104854;28;20024;-66
2023/12/09 02:20:14;;;;;;;23.42;11.93;;;;;;;22.19;42.47;100931.06;2115190;28;20028;-65
2023/12/09 02:21:16;;;;;;;24.70;12.52;;;;;;;22.18;42.43;100930.28;2106460;28;20150;-66
2023/12/09 02:22:24;;;;;;;25.80;12.48;;;;;;;22.19;42.31;100931.06;2099503;28;20032;-65
2023/12/09 02:23:25;;;;;;;24.10;11.15;;;;;;;22.18;42.42;100921.25;2098673;28;20174;-66
2023/12/09 02:24:28;;;;;;;23.70;11.95;;;;;;;22.17;42.21;100919.69;2098895;28;20064;-66
2023/12/09 02:25:30;;;;;;;24.88;12.63;;;;;;;22.18;42.19;100919.31;2107147;28;20028;-65
2023/12/09 02:26:32;;;;;;;26.65;12.90;;;;;;;22.19;42.24;100920.09;2115213;27;20070;-66
2023/12/09 02:27:48;;;;;;;23.27;11.93;;;;;;;22.19;42.12;100911.91;2115061;28;20039;-66
2023/12/09 02:28:57;;;;;;;24.30;12.95;;;;;;;22.18;42.00;100915.78;2100431;28;20044;-66
2023/12/09 02:30:06;;;;;;;24.43;12.57;;;;;;;22.16;42.22;100912.59;2098884;28;20892;-65
2023/12/09 02:31:24;;;;;;;24.27;12.55;;;;;;;22.17;42.08;100919.69;2108581;28;20187;-66
2023/12/09 02:32:30;;;;;;;23.80;11.35;;;;;;;22.16;42.10;100915.31;2106479;28;20049;-66
2023/12/09 02:33:38;;;;;;;23.08;11.68;;;;;;;22.17;42.25;100914.19;2086449;28;20068;-65
2023/12/09 02:34:43;;;;;;;25.13;11.60;;;;;;;22.16;42.12;100912.59;2098819;28;20092;-65
2023/12/09 02:35:47;;;;;;;25.50;12.40;;;;;;;22.16;42.25;100912.59;2091238;28;20017;-65
2023/12/09 02:36:51;;;;;;;25.45;12.40;;;;;;;22.16;42.21;100912.59;2089939;28;20930;-66
2023/12/09 02:37:54;;;;;;;26.63;12.20;;;;;;;22.15;42.32;100921.94;2082352;28;20030;-65
2023/12/09 02:38:56;;;;;;;25.60;12.43;;;;;;;22.17;42.32;100920.47;2081852;28;20030;-66
2023/12/09 02:40:01;;;;;;;24.77;12.23;;;;;;;22.16;42.14;100918.06;2081801;28;20030;-66
2023/12/09 02:41:03;;;;;;;25.55;12.13;;;;;;;22.16;42.13;100915.31;2082872;28;20029;-66
2023/12/09 02:42:07;;;;;;;26.27;12.88;;;;;;;22.16;42.12;100912.59;2082263;28;20041;-66
2023/12/09 02:43:10;;;;;;;26.50;12.32;;;;;;;22.16;42.19;100907.13;2082233;28;20061;-66
2023/12/09 02:44:13;;;;;;;22.17;11.85;;;;;;;22.15;42.14;100906.28;2090209;28;20181;-66
2023/12/09 02:45:19;;;;;;;25.73;12.38;;;;;;;22.15;42.25;100905.50;2082233;28;20058;-65
2023/12/09 02:46:21;;;;;;;23.92;12.07;;;;;;;22.15;42.16;100908.25;2090911;28;20061;-66
2023/12/09 02:47:23;;;;;;;22.00;11.63;;;;;;;22.15;42.22;100910.97;2089960;28;20052;-66
2023/12/09 02:48:25;;;;;;;24.20;11.73;;;;;;;22.14;42.18;100903.91;2082389;28;20029;-66
2023/12/09 02:49:28;;;;;;;25.75;12.20;;;;;;;22.15;42.04;100905.50;2089876;28;20883;-66
2023/12/09 02:50:31;;;;;;;23.58;12.20;;;;;;;22.15;42.18;100905.50;2082125;28;20042;-66
2023/12/09 02:51:36;;;;;;;26.42;13.23;;;;;;;22.14;42.29;100904.69;2082304;28;20030;-66
2023/12/09 02:52:40;;;;;;;24.85;12.13;;;;;;;22.15;42.21;100913.72;2083560;28;20078;-66
2023/12/09 02:53:45;;;;;;;25.13;12.73;;;;;;;22.14;42.21;100907.44;2090679;28;20018;-66
2023/12/09 02:54:49;;;;;;;26.38;13.05;;;;;;;22.13;41.84;100905.88;2099053;28;20021;-66
2023/12/09 02:55:52;;;;;;;24.27;12.77;;;;;;;22.14;41.96;100912.13;2098442;28;20021;-66
2023/12/09 02:56:54;;;;;;;25.10;12.05;;;;;;;22.13;41.92;100905.03;2098387;28;20029;-65
2023/12/09 02:57:55;;;;;;;24.38;12.32;;;;;;;22.13;41.96;100896.81;2098235;28;20041;-67
2023/12/09 02:58:57;;;;;;;25.98;12.98;;;;;;;22.13;41.84;100891.34;2089890;28;20044;-67
2023/12/09 02:59:59;;;;;;;25.10;12.55;;;;;;;22.10;41.91;100887.38;2089621;28;20029;-67
2023/12/09 03:01:04;;;;;;;24.48;12.48;;;;;;;22.12;41.87;100895.25;2097586;28;20041;-67
2023/12/09 03:02:09;;;;;;;24.98;12.65;;;;;;;22.12;42.07;100889.75;2096936;28;20029;-67
2023/12/09 03:03:11;;;;;;;25.58;12.68;;;;;;;22.12;42.21;100889.75;2097629;28;20060;-67
2023/12/09 03:04:13;;;;;;;24.75;12.93;;;;;;;22.12;42.01;100897.97;2089788;28;20030;-67
2023/12/09 03:05:15;;;;;;;25.27;12.23;;;;;;;22.12;41.84;100889.75;2081370;28;20046;-67
2023/12/09 03:06:18;;;;;;;24.38;12.82;;;;;;;22.11;42.04;100897.19;2098131;28;20136;-67
2023/12/09 03:07:23;;;;;;;26.52;12.70;;;;;;;22.11;41.91;100890.91;2097690;28;20025;-67
2023/12/09 03:08:27;;;;;;;23.23;12.10;;;;;;;22.11;41.93;100901.88;2082547;28;20081;-68
2023/12/09 03:09:28;;;;;;;24.67;12.82;;;;;;;22.11;41.95;100896.41;2081900;28;20754;-68
2023/12/09 03:10:30;;;;;;;22.05;12.25;;;;;;;22.10;41.90;100886.56;2098089;28;20067;-68
2023/12/09 03:11:33;;;;;;;26.60;12.95;;;;;;;22.09;41.94;100885.78;2081646;28;20040;-68
2023/12/09 03:12:35;;;;;;;24.73;12.80;;;;;;;22.10;41.97;100894.78;2090405;28;20025;-68
2023/12/09 03:13:37;;;;;;;23.90;12.32;;;;;;;22.09;41.96;100888.50;2081491;28;20960;-68
2023/12/09 03:14:38;;;;;;;28.23;13.43;;;;;;;22.09;41.90;100883.03;2082171;28;20065;-68
2023/12/09 03:15:40;;;;;;;24.23;12.63;;;;;;;22.07;41.98;100866.19;2106481;28;20141;-67
2023/12/09 03:16:42;;;;;;;22.35;12.57;;;;;;;22.08;41.93;100881.44;2106444;28;20029;-67
2023/12/09 03:17:45;;;;;;;27.65;13.50;;;;;;;22.08;41.77;100877.91;2089722;28;20119;-67
2023/12/09 03:18:46;;;;;;;25.77;12.70;;;;;;;22.08;41.71;100875.19;2090181;28;20916;-67
2023/12/09 03:19:52;;;;;;;22.95;12.32;;;;;;;22.06;41.85;100875.50;2098475;28;20045;-67
2023/12/09 03:20:55;;;;;;;24.17;12.32;;;;;;;22.08;42.04;100877.91;2098391;28;20029;-67
2023/12/09 03:21:58;;;;;;;26.15;13.32;;;;;;;22.08;42.00;100883.41;2090227;28;20022;-67
2023/12/09 03:23:01;;;;;;;25.35;12.60;;;;;;;22.08;42.09;100869.72;2090110;28;20136;-67
2023/12/09 03:24:03;;;;;;;25.13;12.40;;;;;;;22.07;41.92;100868.09;2073417;28;20034;-67
2023/12/09 03:25:09;;;;;;;24.02;11.30;;;;;;;22.08;42.09;100880.66;2074087;28;20905;-67
2023/12/09 03:26:17;;;;;;;23.83;12.40;;;;;;;22.07;42.12;100876.31;2082257;28;20057;-67
2023/12/09 03:27:19;;;;;;;26.38;12.80;;;;;;;22.08;42.14;100877.91;2082457;28;20101;-67
2023/12/09 03:28:23;;;;;;;22.38;11.68;;;;;;;22.07;42.05;100876.31;2098638;28;20824;-67
2023/12/09 03:29:25;;;;;;;23.60;11.70;;;;;;;22.07;42.09;100870.84;2106166;28;20953;-67
2023/12/09 03:30:27;;;;;;;24.15;11.77;;;;;;;22.06;42.12;100874.72;2089608;28;20060;-67
2023/12/09 03:31:29;;;;;;;22.73;12.07;;;;;;;22.04;42.12;100868.81;2082064;28;20854;-66
2023/12/09 03:32:31;;;;;;;23.58;12.20;;;;;;;22.07;42.15;100873.56;2081607;28;20144;-66
2023/12/09 03:33:34;;;;;;;22.90;12.32;;;;;;;22.07;41.85;100871.66;2082014;28;20023;-67
2023/12/09 03:34:35;;;;;;;22.92;12.68;;;;;;;22.07;41.83;100873.56;2089765;28;20107;-67
2023/12/09 03:35:37;;;;;;;21.67;11.30;;;;;;;22.07;41.94;100876.31;2089970;28;20939;-67
2023/12/09 03:36:39;;;;;;;24.42;12.38;;;;;;;22.06;41.91;100874.72;2089906;28;20845;-67
2023/12/09 03:37:42;;;;;;;24.63;12.13;;;;;;;22.07;41.91;100873.56;2090278;28;20959;-67
2023/12/09 03:38:45;;;;;;;27.65;13.55;;;;;;;22.07;41.82;100887.25;2097805;28;20029;-67
2023/12/09 03:39:50;;;;;;;25.55;12.77;;;;;;;22.06;41.84;100886.47;2098006;28;20055;-67
2023/12/09 03:40:52;;;;;;;27.52;12.90;;;;;;;22.07;41.93;100876.31;2074170;28;20156;-67
2023/12/09 03:41:56;;;;;;;24.60;12.50;;;;;;;22.06;42.07;100880.19;2082053;28;20761;-67
2023/12/09 03:42:58;;;;;;;22.90;11.98;;;;;;;22.05;42.10;100875.88;2089587;28;20150;-67
2023/12/09 03:43:59;;;;;;;25.58;12.27;;;;;;;22.05;42.10;100879.41;2073361;28;20022;-67
2023/12/09 03:45:00;;;;;;;24.80;12.63;;;;;;;22.05;42.16;100878.63;2073448;28;20858;-67
2023/12/09 03:46:03;;;;;;;24.65;11.82;;;;;;;22.06;42.08;100878.25;2090307;28;20053;-67
2023/12/09 03:47:09;;;;;;;24.48;12.18;;;;;;;22.06;42.09;100872.00;2089458;28;20068;-67
2023/12/09 03:48:13;;;;;;;24.17;12.68;;;;;;;22.05;41.86;100879.41;2091016;28;20966;-67
2023/12/09 03:49:14;;;;;;;24.52;12.55;;;;;;;22.06;42.04;100874.72;2081287;28;20030;-67
2023/12/09 03:50:16;;;;;;;24.77;12.65;;;;;;;22.06;41.98;100869.25;2073677;28;20193;-67
2023/12/09 03:51:20;;;;;;;24.30;12.80;;;;;;;22.06;41.94;100874.72;2098050;28;20118;-66
2023/12/09 03:52:22;;;;;;;26.08;13.25;;;;;;;22.05;41.81;100873.13;2089717;28;20025;-66
2023/12/09 03:53:27;;;;;;;27.88;13.30;;;;;;;22.05;41.83;100879.41;2082495;28;20034;-66
2023/12/09 03:54:29;;;;;;;25.73;12.45;;;;;;;22.05;41.86;100879.41;2090291;28;20029;-66
2023/12/09 03:55:32;;;;;;;23.95;12.00;;;;;;;22.05;41.87;100870.41;2081255;28;20112;-66
2023/12/09 03:56:33;;;;;;;23.52;12.50;;;;;;;22.05;42.06;100873.13;2081702;28;20995;-66
2023/12/09 03:57:36;;;;;;;24.35;12.52;;;;;;;22.03;42.13;100872.69;2081483;28;20038;-66
2023/12/09 03:58:39;;;;;;;24.40;12.88;;;;;;;22.04;41.93;100871.56;2082275;28;20030;-66
2023/12/09 03:59:41;;;;;;;24.17;12.48;;;;;;;22.03;42.01;100876.22;2097523;28;21013;-66
2023/12/09 04:00:42;;;;;;;23.17;11.90;;;;;;;22.05;42.06;100881.34;2098287;28;20060;-65
2023/12/09 04:01:50;;;;;;;22.15;11.52;;;;;;;22.03;42.18;100875.41;2081188;28;20082;-66
2023/12/09 04:02:54;;;;;;;25.23;11.88;;;;;;;22.04;42.26;100883.31;2084039;28;20867;-66
2023/12/09 04:03:56;;;;;;;21.35;11.55;;;;;;;22.05;42.26;100881.34;2081720;28;20034;-66
2023/12/09 04:05:00;;;;;;;25.60;12.43;;;;;;;22.05;42.24;100881.34;2090169;28;20022;-67
2023/12/09 04:06:04;;;;;;;24.48;12.27;;;;;;;22.06;42.09;100882.94;2097538;28;20083;-66
2023/12/09 04:07:09;;;;;;;25.10;11.80;;;;;;;22.05;42.21;100884.09;2090537;28;20134;-66
2023/12/09 04:08:11;;;;;;;23.63;12.43;;;;;;;22.06;42.10;100880.19;2089421;28;20149;-66
2023/12/09 04:09:13;;;;;;;23.52;11.55;;;;;;;22.06;42.23;100874.72;2081526;28;20964;-66
2023/12/09 04:10:15;;;;;;;23.23;12.23;;;;;;;22.06;42.29;100874.72;2089995;28;20112;-66
2023/12/09 04:11:17;;;;;;;22.23;11.40;;;;;;;22.05;42.12;100871.19;2098317;28;20021;-66
2023/12/09 04:12:20;;;;;;;24.98;11.93;;;;;;;22.06;42.21;100874.72;2089711;28;20901;-66
2023/12/09 04:13:22;;;;;;;23.63;12.60;;;;;;;22.06;42.18;100870.03;2089773;28;20052;-66
2023/12/09 04:14:26;;;;;;;25.00;11.88;;;;;;;22.05;42.20;100868.47;2097570;28;20037;-66
2023/12/09 04:15:30;;;;;;;24.58;12.15;;;;;;;22.06;42.28;100869.25;2105948;28;20028;-66
2023/12/09 04:16:32;;;;;;;24.90;11.88;;;;;;;22.07;42.11;100870.84;2089688;28;20046;-66
2023/12/09 04:17:34;;;;;;;22.25;11.13;;;;;;;22.06;42.34;100858.28;2089675;28;20037;-66
2023/12/09 04:18:36;;;;;;;20.88;11.32;;;;;;;22.07;42.16;100857.13;2097712;28;20040;-66
2023/12/09 04:19:41;;;;;;;22.48;11.43;;;;;;;22.07;42.36;100859.88;2090088;28;20021;-66
2023/12/09 04:20:43;;;;;;;22.70;11.98;;;;;;;22.07;42.39;100859.88;2089787;28;20061;-66
2023/12/09 04:21:44;;;;;;;20.65;11.18;;;;;;;22.07;42.36;100860.69;2089874;28;20765;-65
2023/12/09 04:22:47;;;;;;;23.30;11.52;;;;;;;22.07;42.22;100863.44;2081097;28;20049;-65
2023/12/09 04:23:49;;;;;;;25.67;11.90;;;;;;;22.08;42.24;100861.50;2073260;28;20034;-65
2023/12/09 04:24:51;;;;;;;23.77;11.55;;;;;;;22.07;42.22;100852.50;2080867;28;20193;-65
2023/12/09 04:25:52;;;;;;;24.65;12.40;;;;;;;22.07;42.25;100852.50;2091185;28;20847;-65
2023/12/09 04:26:55;;;;;;;23.30;11.98;;;;;;;22.07;42.11;100855.22;2107264;28;20880;-65
2023/12/09 04:28:01;;;;;;;24.65;11.82;;;;;;;22.07;42.15;100852.50;2090642;28;20227;-65
2023/12/09 04:29:06;;;;;;;22.73;10.90;;;;;;;22.08;42.22;100851.34;2091641;28;20029;-66
2023/12/09 04:30:11;;;;;;;20.92;11.60;;;;;;;22.08;42.21;100856.00;2099029;28;20021;-66
2023/12/09 04:31:13;;;;;;;22.85;12.40;;;;;;;22.08;42.39;100851.34;2082945;28;20022;-66
2023/12/09 04:32:15;;;;;;;23.00;11.80;;;;;;;22.08;42.17;100851.34;2074498;28;20030;-66
2023/12/09 04:33:19;;;;;;;21.00;11.32;;;;;;;22.08;42.39;100850.53;2074263;28;20851;-66
2023/12/09 04:34:20;;;;;;;20.02;11.38;;;;;;;22.07;42.24;100848.94;2083257;28;20038;-67
2023/12/09 04:35:22;;;;;;;21.13;11.02;;;;;;;22.08;42.38;100847.81;2082270;28;20219;-67
2023/12/09 04:36:27;;;;;;;21.13;11.45;;;;;;;22.09;42.38;100857.59;2082791;28;20034;-66
2023/12/09 04:37:29;;;;;;;19.42;11.10;;;;;;;22.09;42.27;100852.13;2090947;28;20029;-67
2023/12/09 04:38:30;;;;;;;22.10;11.63;;;;;;;22.08;42.47;100853.28;2083080;28;20088;-66
2023/12/09 04:39:32;;;;;;;24.30;11.63;;;;;;;22.09;42.32;100858.38;2074278;28;20141;-68
2023/12/09 04:40:36;;;;;;;24.00;11.10;;;;;;;22.05;42.43;100846.56;2082539;28;20041;-67
2023/12/09 04:41:38;;;;;;;18.73;11.07;;;;;;;22.09;42.37;100847.44;2083266;28;20045;-67
2023/12/09 04:42:42;;;;;;;22.30;12.07;;;;;;;22.10;42.44;100854.53;2099563;28;20096;-66
2023/12/09 04:43:44;;;;;;;20.80;10.95;;;;;;;22.10;42.23;100856.44;2098871;28;20684;-69
2023/12/09 04:44:45;;;;;;;20.33;10.73;;;;;;;22.10;42.36;100861.91;2099059;28;20037;-66
2023/12/09 04:45:47;;;;;;;20.27;11.43;;;;;;;22.09;42.49;100858.38;2098777;28;20029;-67
2023/12/09 04:46:49;;;;;;;20.00;11.23;;;;;;;22.10;42.52;100857.25;2098936;28;20033;-67
2023/12/09 04:47:51;;;;;;;21.50;11.50;;;;;;;22.11;42.51;100858.06;2090777;28;20045;-67
2023/12/09 04:48:52;;;;;;;20.35;9.98;;;;;;;22.12;42.49;100859.63;2099428;28;20107;-67